Time;durP1;ratioP1;P1;durP2;ratioP2;P2;SDS_P1;SDS_P2;PMS_P1;PMS_P2;Temp;Humidity;BMP_temperature;BMP_pressure;BME280_temperature;BME280_humidity;BME280_pressure;Samples;Min_cycle;Max_cycle;Signal;HPM_P1;HPM_P2
2023/12/30 00:01:57;;;;;;;5.75;1.35;;;5.80;99.90;;;;;;5047687;28;20033;-84
2023/12/30 00:04:22;;;;;;;7.93;1.75;;;6.70;99.90;;;;;;5042629;28;20049;-84
2023/12/30 00:06:48;;;;;;;8.23;1.40;;;5.80;99.90;;;;;;5045918;28;20045;-83
2023/12/30 00:09:14;;;;;;;8.45;1.40;;;6.60;99.90;;;;;;5072211;28;20516;-84
2023/12/30 00:11:39;;;;;;;14.98;1.60;;;6.80;99.90;;;;;;5048817;28;20124;-83
2023/12/30 00:14:05;;;;;;;10.10;1.77;;;5.90;99.90;;;;;;5045634;28;20475;-84
2023/12/30 00:16:31;;;;;;;10.07;1.73;;;6.20;99.90;;;;;;5046788;28;20048;-84
2023/12/30 00:18:56;;;;;;;6.60;1.48;;;6.80;99.90;;;;;;5046766;28;20471;-84
2023/12/30 00:21:23;;;;;;;4.82;1.23;;;6.80;99.90;;;;;;5046132;28;20403;-83
2023/12/30 00:23:49;;;;;;;11.88;2.30;;;6.60;99.90;;;;;;5049576;28;20040;-84
2023/12/30 00:26:22;;;;;;;9.43;1.50;;;5.90;99.90;;;;;;5039580;28;20073;-84
2023/12/30 00:28:52;;;;;;;7.13;1.20;;;5.90;99.90;;;;;;5047211;28;20033;-84
2023/12/30 00:31:25;;;;;;;6.07;1.40;;;5.90;99.90;;;;;;5044768;28;20563;-83
2023/12/30 00:33:53;;;;;;;8.30;1.92;;;5.90;99.90;;;;;;5041042;28;20504;-84
2023/12/30 00:36:18;;;;;;;10.38;1.45;;;6.60;99.90;;;;;;5043632;28;20041;-83
2023/12/30 00:38:45;;;;;;;8.00;1.52;;;6.30;99.90;;;;;;5039971;28;20455;-84
2023/12/30 00:41:13;;;;;;;6.50;1.00;;;5.90;99.90;;;;;;5046195;28;20042;-83
2023/12/30 00:43:40;;;;;;;7.22;1.40;;;6.50;99.90;;;;;;5052164;28;20048;-83
2023/12/30 00:46:06;;;;;;;10.60;1.45;;;5.80;99.90;;;;;;5086166;28;20052;-83
2023/12/30 00:48:32;;;;;;;9.95;1.55;;;5.80;99.90;;;;;;5080505;28;20048;-81
2023/12/30 00:51:00;;;;;;;10.18;1.38;;;5.80;99.90;;;;;;5050942;28;20037;-81
2023/12/30 00:53:26;;;;;;;7.63;1.45;;;5.70;99.90;;;;;;5050572;28;20056;-81
2023/12/30 00:55:53;;;;;;;10.23;2.00;;;5.80;99.90;;;;;;5045454;28;20405;-82
2023/12/30 00:58:20;;;;;;;11.00;1.70;;;5.80;99.90;;;;;;5044666;28;20053;-81
2023/12/30 01:00:46;;;;;;;7.25;1.70;;;5.80;99.90;;;;;;5049390;28;20028;-81
2023/12/30 01:03:11;;;;;;;5.20;1.00;;;5.80;99.90;;;;;;5051434;28;20048;-82
2023/12/30 01:05:37;;;;;;;7.03;1.33;;;5.80;99.90;;;;;;5053625;28;20453;-81
2023/12/30 01:08:03;;;;;;;9.05;2.28;;;6.60;99.90;;;;;;5048997;28;20048;-82
2023/12/30 01:10:29;;;;;;;6.88;1.40;;;5.80;99.90;;;;;;5049805;28;20040;-81
2023/12/30 01:12:54;;;;;;;6.47;1.20;;;5.70;99.90;;;;;;5042720;28;20045;-80
2023/12/30 01:15:20;;;;;;;6.25;1.35;;;6.40;99.90;;;;;;5042710;28;20412;-82
2023/12/30 01:17:46;;;;;;;7.00;1.30;;;5.90;99.90;;;;;;5050846;28;20409;-81
2023/12/30 01:20:11;;;;;;;10.25;2.70;;;5.80;99.90;;;;;;5050968;28;20052;-82
2023/12/30 01:22:37;;;;;;;5.97;1.73;;;6.40;99.90;;;;;;5047364;28;20095;-82
2023/12/30 01:25:03;;;;;;;12.75;1.83;;;6.10;99.90;;;;;;5049039;28;20045;-82
2023/12/30 01:27:29;;;;;;;6.47;1.35;;;5.80;99.90;;;;;;5052704;28;20408;-81
2023/12/30 01:29:54;;;;;;;8.02;1.27;;;6.00;99.90;;;;;;5046122;28;20459;-82
2023/12/30 01:32:20;;;;;;;11.35;1.73;;;6.40;99.90;;;;;;5046037;28;20497;-82
2023/12/30 01:34:45;;;;;;;9.43;1.42;;;5.70;99.90;;;;;;5044303;28;20056;-81
2023/12/30 01:37:11;;;;;;;6.30;1.10;;;6.40;99.90;;;;;;5046769;28;20041;-82
2023/12/30 01:39:37;;;;;;;7.60;1.60;;;5.80;99.90;;;;;;5050038;28;20496;-82
2023/12/30 01:42:02;;;;;;;8.75;1.63;;;6.50;99.90;;;;;;5047804;28;20041;-81
2023/12/30 01:44:28;;;;;;;8.30;1.35;;;5.70;99.90;;;;;;5049782;28;20052;-81
2023/12/30 01:46:55;;;;;;;9.27;1.60;;;6.60;99.90;;;;;;5049009;28;20412;-81
2023/12/30 01:49:21;;;;;;;7.63;1.00;;;6.40;99.90;;;;;;5045754;28;20136;-81
2023/12/30 01:51:48;;;;;;;9.65;1.42;;;5.80;99.90;;;;;;5049087;28;20036;-81
2023/12/30 01:54:17;;;;;;;8.52;1.65;;;5.30;99.90;;;;;;5048566;28;20036;-81
2023/12/30 01:56:43;;;;;;;9.30;1.52;;;5.70;99.90;;;;;;5040954;28;20041;-81
2023/12/30 01:59:09;;;;;;;6.95;1.42;;;6.00;99.90;;;;;;5046752;28;20465;-81
2023/12/30 02:01:34;;;;;;;8.95;1.60;;;6.50;99.90;;;;;;5040272;28;20065;-81
2023/12/30 02:04:00;;;;;;;9.90;1.05;;;6.50;99.90;;;;;;5045900;28;20495;-80
2023/12/30 02:06:26;;;;;;;6.22;1.42;;;5.80;99.90;;;;;;5052247;28;20495;-81
2023/12/30 02:08:52;;;;;;;6.97;1.50;;;6.60;99.90;;;;;;5050504;28;20120;-81
2023/12/30 02:11:18;;;;;;;7.30;1.48;;;6.20;99.90;;;;;;5049882;28;20036;-82
2023/12/30 02:13:44;;;;;;;4.90;1.10;;;5.90;99.90;;;;;;5050963;28;20095;-81
2023/12/30 02:16:10;;;;;;;7.47;1.23;;;6.20;99.90;;;;;;5046596;28;20045;-81
2023/12/30 02:18:37;;;;;;;11.13;1.88;;;6.00;99.90;;;;;;5051271;28;20120;-82
2023/12/30 02:21:03;;;;;;;8.13;1.17;;;6.00;99.90;;;;;;5051044;28;20041;-81
2023/12/30 02:23:29;;;;;;;6.22;1.40;;;6.10;99.90;;;;;;5048015;28;20065;-82
2023/12/30 02:25:55;;;;;;;6.47;1.08;;;6.60;99.90;;;;;;5050243;28;20072;-82
2023/12/30 02:28:20;;;;;;;8.90;1.58;;;7.00;99.90;;;;;;5048515;28;20412;-81
2023/12/30 02:30:46;;;;;;;9.00;1.52;;;6.70;99.90;;;;;;5049782;28;20579;-82
2023/12/30 02:33:11;;;;;;;10.65;1.67;;;6.10;99.90;;;;;;5048308;28;20131;-82
2023/12/30 02:35:40;;;;;;;10.57;1.73;;;6.90;99.90;;;;;;5049883;28;20037;-81
2023/12/30 02:38:06;;;;;;;6.70;1.30;;;7.10;99.90;;;;;;5050283;28;20045;-81
2023/12/30 02:40:31;;;;;;;10.20;2.00;;;6.90;99.90;;;;;;5050045;28;20052;-81
2023/12/30 02:42:57;;;;;;;7.35;1.45;;;7.10;99.90;;;;;;5049768;28;20076;-81
2023/12/30 02:45:22;;;;;;;5.18;1.25;;;6.60;99.90;;;;;;5046960;28;20045;-82
2023/12/30 02:47:48;;;;;;;6.32;1.30;;;6.90;99.90;;;;;;5051484;28;20082;-81
2023/12/30 02:50:14;;;;;;;10.93;1.45;;;7.20;99.90;;;;;;5046711;28;20037;-82
2023/12/30 02:52:39;;;;;;;10.57;1.73;;;6.50;99.90;;;;;;5049381;28;20041;-81
2023/12/30 02:55:06;;;;;;;6.28;1.40;;;6.80;99.90;;;;;;5046802;28;20044;-81
2023/12/30 02:57:31;;;;;;;9.27;1.52;;;6.50;99.90;;;;;;5049447;28;20171;-81
2023/12/30 02:59:57;;;;;;;11.07;1.85;;;7.20;99.90;;;;;;5046818;28;20127;-80
2023/12/30 03:02:23;;;;;;;7.97;1.30;;;6.90;99.90;;;;;;5044879;28;20037;-82
2023/12/30 03:04:49;;;;;;;5.90;1.73;;;6.90;99.90;;;;;;5046610;28;20041;-81
2023/12/30 03:07:15;;;;;;;7.65;1.60;;;7.20;99.90;;;;;;5050358;28;20028;-82
2023/12/30 03:09:40;;;;;;;10.52;1.83;;;7.10;99.90;;;;;;5046207;28;20058;-81
2023/12/30 03:12:08;;;;;;;11.00;1.48;;;6.80;99.90;;;;;;5040904;28;20110;-82
2023/12/30 03:14:34;;;;;;;10.27;1.73;;;6.60;99.90;;;;;;5047119;28;20080;-81
2023/12/30 03:16:59;;;;;;;11.52;1.60;;;6.80;99.90;;;;;;5044314;28;20037;-81
2023/12/30 03:19:25;;;;;;;11.65;1.67;;;7.40;99.90;;;;;;5048255;28;20044;-82
2023/12/30 03:21:50;;;;;;;9.65;1.95;;;7.20;99.90;;;;;;5050808;28;20048;-82
2023/12/30 03:24:16;;;;;;;11.98;1.73;;;6.80;99.90;;;;;;5046842;28;20515;-81
2023/12/30 03:26:42;;;;;;;9.40;1.50;;;7.00;99.90;;;;;;5043258;28;20098;-81
2023/12/30 03:29:07;;;;;;;11.73;1.80;;;7.30;99.90;;;;;;5047072;28;20068;-81
2023/12/30 03:31:33;;;;;;;10.57;1.63;;;6.70;99.90;;;;;;5048698;28;20504;-81
2023/12/30 03:33:59;;;;;;;8.50;1.63;;;7.20;99.90;;;;;;5041415;28;20128;-81
2023/12/30 03:36:24;;;;;;;8.80;1.58;;;7.20;99.90;;;;;;5042360;28;20049;-82
2023/12/30 03:38:52;;;;;;;7.32;1.60;;;7.30;99.90;;;;;;5045910;28;20037;-80
2023/12/30 03:41:18;;;;;;;9.98;1.27;;;7.10;99.90;;;;;;5048159;28;20041;-80
2023/12/30 03:43:43;;;;;;;9.38;1.52;;;7.20;99.90;;;;;;5048201;28;20417;-82
2023/12/30 03:46:09;;;;;;;7.50;1.33;;;7.10;99.90;;;;;;5046503;28;20098;-81
2023/12/30 03:48:36;;;;;;;10.13;1.67;;;6.80;99.90;;;;;;5047016;28;20044;-81
2023/12/30 03:51:01;;;;;;;10.77;1.60;;;7.20;99.90;;;;;;5029010;28;20059;-81
2023/12/30 03:53:27;;;;;;;9.25;1.80;;;6.50;99.90;;;;;;5049280;28;20513;-81
2023/12/30 03:55:53;;;;;;;8.18;1.40;;;7.20;99.90;;;;;;5046118;28;20125;-81
2023/12/30 03:58:18;;;;;;;10.18;2.00;;;6.80;99.90;;;;;;5044055;28;20037;-81
2023/12/30 04:00:44;;;;;;;9.05;1.83;;;6.40;99.90;;;;;;5046738;28;20041;-81
2023/12/30 04:03:10;;;;;;;9.45;1.98;;;6.40;99.90;;;;;;5048744;28;20518;-82
2023/12/30 04:05:36;;;;;;;11.35;2.40;;;6.90;99.90;;;;;;5045560;28;20086;-82
2023/12/30 04:08:01;;;;;;;9.25;1.58;;;6.70;99.90;;;;;;5040882;28;20047;-82
2023/12/30 04:10:27;;;;;;;7.15;1.40;;;6.30;99.90;;;;;;5048260;28;20111;-81
2023/12/30 04:12:52;;;;;;;11.48;1.95;;;6.60;99.90;;;;;;5047544;28;20116;-81
2023/12/30 04:15:19;;;;;;;10.80;1.80;;;6.20;99.90;;;;;;5050038;28;20029;-82
2023/12/30 04:17:45;;;;;;;10.70;1.30;;;6.60;99.90;;;;;;5054814;28;20044;-81
2023/12/30 04:20:10;;;;;;;10.60;2.33;;;6.20;99.90;;;;;;5051623;28;20044;-80
2023/12/30 04:22:36;;;;;;;12.73;1.85;;;6.20;99.90;;;;;;5049956;28;20033;-81
2023/12/30 04:25:02;;;;;;;9.60;1.60;;;6.30;99.90;;;;;;5053142;28;20037;-82
2023/12/30 04:27:28;;;;;;;12.30;1.60;;;6.30;99.90;;;;;;5045316;28;20037;-81
2023/12/30 04:29:54;;;;;;;8.68;1.30;;;6.70;99.90;;;;;;5041872;28;20403;-82
2023/12/30 04:32:24;;;;;;;12.55;2.03;;;7.30;99.90;;;;;;5051547;28;20045;-82
2023/12/30 04:34:50;;;;;;;11.30;1.80;;;7.10;99.90;;;;;;5052157;28;20040;-81
2023/12/30 04:37:16;;;;;;;6.57;1.23;;;7.30;99.90;;;;;;5053109;28;20413;-81
2023/12/30 04:39:41;;;;;;;12.15;2.03;;;6.70;99.90;;;;;;5046634;28;20047;-81
2023/12/30 04:42:07;;;;;;;8.40;1.80;;;6.60;99.90;;;;;;5050149;28;20075;-81
2023/12/30 04:44:33;;;;;;;7.82;1.58;;;7.00;99.90;;;;;;5049145;28;20044;-80
2023/12/30 04:46:58;;;;;;;9.93;1.73;;;7.00;99.90;;;;;;5051193;28;20059;-81
2023/12/30 04:49:24;;;;;;;11.95;1.73;;;7.10;99.90;;;;;;5054104;28;20106;-81
2023/12/30 04:51:50;;;;;;;8.35;1.60;;;6.80;99.90;;;;;;5053040;28;20040;-81
2023/12/30 04:54:15;;;;;;;7.18;1.60;;;7.10;99.90;;;;;;5049599;28;20115;-81
2023/12/30 04:56:41;;;;;;;11.68;1.50;;;6.70;99.90;;;;;;5049474;28;20041;-80
2023/12/30 04:59:08;;;;;;;6.22;1.60;;;6.90;99.90;;;;;;5047754;28;20124;-81
2023/12/30 05:01:34;;;;;;;8.90;2.17;;;7.00;99.90;;;;;;5047145;28;20069;-80
2023/12/30 05:04:01;;;;;;;10.00;2.05;;;6.80;99.90;;;;;;5050509;28;20138;-80
2023/12/30 05:06:27;;;;;;;10.77;1.65;;;6.50;99.90;;;;;;5053675;28;20036;-81
2023/12/30 05:08:53;;;;;;;5.60;1.63;;;7.10;99.90;;;;;;5053705;28;20048;-81
2023/12/30 05:11:19;;;;;;;10.57;1.70;;;6.90;99.90;;;;;;5049429;28;20045;-81
2023/12/30 05:13:48;;;;;;;15.18;1.63;;;6.90;99.90;;;;;;5049236;28;20048;-81
2023/12/30 05:16:14;;;;;;;7.72;1.88;;;6.60;99.90;;;;;;5078969;28;20060;-80
2023/12/30 05:18:39;;;;;;;11.60;1.60;;;7.10;99.90;;;;;;5050327;28;20036;-80
2023/12/30 05:21:12;;;;;;;10.10;2.15;;;7.20;99.90;;;;;;5053500;28;20108;-81
2023/12/30 05:23:38;;;;;;;7.53;1.47;;;7.00;99.90;;;;;;5051893;28;20496;-80
2023/12/30 05:26:03;;;;;;;10.52;2.00;;;7.00;99.90;;;;;;5051427;28;20287;-81
2023/12/30 05:28:29;;;;;;;12.68;1.65;;;6.40;99.90;;;;;;5051664;28;20037;-81
2023/12/30 05:30:55;;;;;;;9.85;1.70;;;7.00;99.90;;;;;;5050803;28;20080;-81
2023/12/30 05:33:20;;;;;;;11.68;1.77;;;6.40;99.90;;;;;;5050419;28;20116;-81
2023/12/30 05:35:46;;;;;;;16.10;2.25;;;6.30;99.90;;;;;;5050036;28;20055;-82
2023/12/30 05:38:12;;;;;;;13.35;2.20;;;6.60;99.90;;;;;;5050574;28;20052;-81
2023/12/30 05:40:39;;;;;;;9.32;2.10;;;6.20;99.90;;;;;;5047044;28;20444;-80
2023/12/30 05:43:05;;;;;;;12.50;1.85;;;6.90;99.90;;;;;;5052236;28;20097;-81
2023/12/30 05:45:31;;;;;;;7.70;1.75;;;6.30;99.90;;;;;;5046605;28;20090;-81
2023/12/30 05:47:57;;;;;;;10.50;2.17;;;6.80;99.90;;;;;;5047599;28;20132;-81
2023/12/30 05:50:22;;;;;;;11.30;1.70;;;7.10;99.90;;;;;;5050042;28;20464;-80
2023/12/30 05:52:48;;;;;;;11.77;2.20;;;7.00;99.90;;;;;;5044890;28;20495;-81
2023/12/30 05:55:14;;;;;;;7.75;1.38;;;7.00;99.90;;;;;;5052061;28;20124;-81
2023/12/30 05:57:39;;;;;;;10.07;1.85;;;6.40;99.90;;;;;;5050891;28;20037;-82
2023/12/30 06:00:08;;;;;;;9.23;1.65;;;6.90;99.90;;;;;;5051728;28;20037;-80
2023/12/30 06:02:33;;;;;;;9.48;1.83;;;6.40;99.90;;;;;;5050214;28;20103;-81
2023/12/30 06:04:59;;;;;;;8.45;1.67;;;6.80;99.90;;;;;;5045939;28;20095;-81
2023/12/30 06:07:25;;;;;;;14.30;2.08;;;7.20;99.90;;;;;;5039527;28;20105;-82
2023/12/30 06:09:50;;;;;;;8.45;1.40;;;7.00;99.90;;;;;;5045906;28;20045;-79
2023/12/30 06:12:16;;;;;;;10.82;1.77;;;7.10;99.90;;;;;;5047176;28;20072;-81
2023/12/30 06:14:41;;;;;;;11.57;1.85;;;7.20;99.90;;;;;;5048627;28;20140;-81
2023/12/30 06:17:07;;;;;;;10.98;1.60;;;7.00;99.90;;;;;;5047905;28;20040;-81
2023/12/30 06:19:34;;;;;;;10.75;1.90;;;6.60;99.90;;;;;;5049781;28;20037;-80
2023/12/30 06:21:59;;;;;;;11.13;1.45;;;6.90;99.90;;;;;;5051907;28;20404;-81
2023/12/30 06:24:26;;;;;;;15.05;2.25;;;6.50;99.90;;;;;;5049258;28;20045;-81
2023/12/30 06:26:52;;;;;;;10.85;1.92;;;6.70;99.90;;;;;;5051216;28;20127;-81
2023/12/30 06:29:19;;;;;;;12.63;2.05;;;7.20;99.90;;;;;;5050788;28;20091;-81
2023/12/30 06:31:44;;;;;;;11.27;1.65;;;6.90;99.90;;;;;;5048955;28;20373;-81
2023/12/30 06:34:10;;;;;;;8.82;1.60;;;6.40;99.90;;;;;;5047552;28;20052;-81
2023/12/30 06:36:37;;;;;;;11.57;2.13;;;6.40;99.90;;;;;;5039227;28;20034;-81
2023/12/30 06:39:04;;;;;;;7.70;1.70;;;6.90;99.90;;;;;;5046965;28;20112;-81
2023/12/30 06:41:30;;;;;;;7.10;1.58;;;6.40;99.90;;;;;;5049223;28;20175;-82
2023/12/30 06:43:56;;;;;;;12.07;1.95;;;6.60;99.90;;;;;;5048911;28;20512;-81
2023/12/30 06:46:21;;;;;;;8.18;1.52;;;7.00;99.90;;;;;;5046989;28;20045;-81
2023/12/30 06:48:47;;;;;;;10.38;1.50;;;7.20;99.90;;;;;;5050645;28;20041;-81
2023/12/30 06:51:13;;;;;;;10.07;1.67;;;7.00;99.90;;;;;;5048375;28;20457;-82
2023/12/30 06:53:39;;;;;;;12.50;2.28;;;6.90;99.90;;;;;;5045028;28;20041;-81
2023/12/30 06:56:07;;;;;;;8.43;1.92;;;6.20;99.90;;;;;;5050559;28;20408;-81
2023/12/30 06:58:34;;;;;;;10.80;1.70;;;6.20;99.90;;;;;;5048142;28;20124;-81
2023/12/30 07:01:00;;;;;;;12.98;2.10;;;6.60;99.90;;;;;;5049449;28;20048;-81
2023/12/30 07:03:25;;;;;;;8.48;1.88;;;6.30;99.90;;;;;;5048213;28;20052;-81
2023/12/30 07:05:51;;;;;;;7.50;1.83;;;6.80;99.90;;;;;;5079232;28;20041;-80
2023/12/30 07:08:17;;;;;;;10.32;1.60;;;6.60;99.90;;;;;;5048953;28;20048;-81
2023/12/30 07:10:43;;;;;;;9.45;2.03;;;6.80;99.90;;;;;;5044059;28;20072;-81
2023/12/30 07:13:08;;;;;;;10.18;1.70;;;6.60;99.90;;;;;;5046736;28;20504;-81
2023/12/30 07:15:34;;;;;;;11.75;1.88;;;6.40;99.90;;;;;;5045695;28;20077;-81
2023/12/30 07:18:00;;;;;;;7.75;2.05;;;6.70;99.90;;;;;;5049882;28;20036;-81
2023/12/30 07:20:26;;;;;;;13.07;2.38;;;6.90;99.90;;;;;;5049849;28;20063;-81
2023/12/30 07:22:53;;;;;;;8.68;1.60;;;6.30;99.90;;;;;;5044892;28;20048;-81
2023/12/30 07:25:18;;;;;;;8.73;1.63;;;6.40;99.90;;;;;;5042843;28;20042;-80
2023/12/30 07:27:44;;;;;;;10.05;1.70;;;6.30;99.90;;;;;;5044272;28;20091;-81
2023/12/30 07:30:10;;;;;;;8.77;1.50;;;6.90;99.90;;;;;;5049485;28;20048;-81
2023/12/30 07:32:37;;;;;;;7.25;1.52;;;6.20;99.90;;;;;;5082162;28;20492;-82
2023/12/30 07:35:06;;;;;;;8.18;1.98;;;6.80;99.90;;;;;;5045375;28;20045;-82
2023/12/30 07:37:33;;;;;;;10.73;1.83;;;6.20;99.90;;;;;;5041958;28;20046;-81
2023/12/30 07:40:01;;;;;;;8.73;1.90;;;6.30;99.90;;;;;;5039037;28;20050;-82
2023/12/30 07:42:26;;;;;;;12.63;2.50;;;7.00;99.90;;;;;;5047190;28;20401;-81
2023/12/30 07:44:53;;;;;;;11.30;1.50;;;6.70;99.90;;;;;;5042614;28;20040;-80
2023/12/30 07:47:19;;;;;;;12.40;1.88;;;6.80;99.90;;;;;;5048466;28;20079;-82
2023/12/30 07:49:46;;;;;;;9.50;1.80;;;6.70;99.90;;;;;;5043064;28;20041;-81
2023/12/30 07:52:12;;;;;;;11.60;1.90;;;6.60;99.90;;;;;;5045375;28;20044;-82
2023/12/30 07:54:37;;;;;;;7.07;1.60;;;7.00;99.90;;;;;;5043292;28;20033;-81
2023/12/30 07:57:03;;;;;;;13.00;2.25;;;6.60;99.90;;;;;;5046920;28;20037;-82
2023/12/30 07:59:29;;;;;;;8.50;1.33;;;6.30;99.90;;;;;;5048272;28;20466;-81
2023/12/30 08:01:57;;;;;;;14.13;1.70;;;6.40;99.90;;;;;;5038079;28;20064;-80
2023/12/30 08:04:23;;;;;;;10.52;1.75;;;6.80;99.90;;;;;;5038200;28;20041;-81
2023/12/30 08:06:49;;;;;;;13.63;1.70;;;6.30;99.90;;;;;;5043904;28;20587;-81
2023/12/30 08:09:15;;;;;;;10.68;1.90;;;7.00;99.90;;;;;;5048939;28;20412;-81
2023/12/30 08:11:42;;;;;;;8.05;1.42;;;6.30;99.90;;;;;;5040477;28;20037;-83
2023/12/30 08:14:08;;;;;;;11.52;2.03;;;6.80;99.90;;;;;;5042166;28;20041;-83
2023/12/30 08:16:38;;;;;;;10.70;1.23;;;7.00;99.90;;;;;;5046308;28;20047;-84
2023/12/30 08:19:04;;;;;;;10.40;1.92;;;6.80;99.90;;;;;;5042012;28;20178;-84
2023/12/30 08:21:30;;;;;;;9.15;1.67;;;6.90;99.90;;;;;;5044309;28;20112;-83
2023/12/30 08:23:57;;;;;;;9.20;2.65;;;6.80;99.90;;;;;;5041987;28;20045;-83
2023/12/30 08:26:24;;;;;;;7.57;1.50;;;6.40;99.90;;;;;;5041152;28;20041;-83
2023/12/30 08:28:50;;;;;;;8.77;1.92;;;6.30;99.90;;;;;;5042902;28;20048;-83
2023/12/30 08:31:16;;;;;;;13.77;2.75;;;6.70;99.90;;;;;;5047834;28;20433;-82
2023/12/30 08:33:42;;;;;;;10.93;1.85;;;6.50;99.90;;;;;;5049132;28;20155;-83
2023/12/30 08:36:07;;;;;;;10.48;1.67;;;6.30;99.90;;;;;;5049397;28;20115;-83
2023/12/30 08:38:33;;;;;;;8.77;1.50;;;6.30;99.90;;;;;;5049270;28;20408;-83
2023/12/30 08:40:59;;;;;;;9.45;2.05;;;7.00;99.90;;;;;;5048252;28;20085;-84
2023/12/30 08:43:24;;;;;;;12.65;2.13;;;6.20;99.90;;;;;;5047679;28;20128;-82
2023/12/30 08:45:50;;;;;;;9.82;1.77;;;7.10;99.90;;;;;;5046457;28;20120;-82
2023/12/30 08:48:16;;;;;;;12.07;2.22;;;6.20;99.90;;;;;;5045951;28;20041;-84
2023/12/30 08:50:44;;;;;;;14.60;2.50;;;7.00;99.90;;;;;;5046537;28;20071;-84
2023/12/30 08:53:10;;;;;;;10.48;1.92;;;6.20;99.90;;;;;;5046485;28;20068;-82
2023/12/30 08:55:36;;;;;;;13.18;2.47;;;6.70;99.90;;;;;;5043383;28;20584;-83
2023/12/30 08:58:02;;;;;;;10.10;2.45;;;6.70;99.90;;;;;;5045641;28;20123;-83
2023/12/30 09:00:27;;;;;;;11.27;2.08;;;6.20;99.90;;;;;;5048589;28;20064;-81
2023/12/30 09:02:55;;;;;;;9.70;1.60;;;6.60;99.90;;;;;;5051268;28;20047;-82
2023/12/30 09:05:21;;;;;;;12.32;1.98;;;6.60;99.90;;;;;;5051784;28;20049;-83
2023/12/30 09:07:51;;;;;;;13.05;1.83;;;6.80;99.90;;;;;;5052518;28;20041;-82
2023/12/30 09:10:17;;;;;;;12.15;2.33;;;6.20;99.90;;;;;;5053449;28;20480;-83
2023/12/30 09:12:44;;;;;;;9.88;3.08;;;7.20;99.90;;;;;;5049344;28;20037;-83
2023/12/30 09:15:10;;;;;;;9.05;2.30;;;6.30;99.90;;;;;;5045539;28;20044;-82
2023/12/30 09:17:35;;;;;;;11.38;2.22;;;7.00;99.90;;;;;;5048509;28;20037;-84
2023/12/30 09:20:01;;;;;;;10.05;2.53;;;6.20;99.90;;;;;;5049763;28;20082;-82
2023/12/30 09:22:27;;;;;;;10.95;1.90;;;7.10;99.90;;;;;;5046177;28;20045;-80
2023/12/30 09:24:53;;;;;;;10.85;2.00;;;6.80;99.90;;;;;;5049010;28;20628;-83
2023/12/30 09:27:21;;;;;;;8.63;1.80;;;6.40;99.90;;;;;;5049552;28;20080;-83
2023/12/30 09:29:47;;;;;;;11.07;1.80;;;7.00;99.90;;;;;;5048287;28;20049;-83
2023/12/30 09:32:13;;;;;;;5.97;1.67;;;7.10;99.90;;;;;;5053329;28;20162;-83
2023/12/30 09:34:38;;;;;;;8.95;1.52;;;6.70;99.90;;;;;;5047737;28;20044;-81
2023/12/30 09:37:04;;;;;;;12.65;2.80;;;7.20;99.90;;;;;;5051427;28;20045;-82
2023/12/30 09:39:29;;;;;;;12.45;2.25;;;6.50;99.90;;;;;;5049413;28;20044;-83
2023/12/30 09:41:56;;;;;;;11.32;1.83;;;7.20;99.90;;;;;;5072693;28;20521;-83
2023/12/30 09:44:23;;;;;;;9.48;1.70;;;7.10;99.90;;;;;;5082956;28;20077;-83
2023/12/30 09:46:50;;;;;;;11.38;2.75;;;6.60;99.90;;;;;;5053088;28;20037;-83
2023/12/30 09:49:16;;;;;;;10.90;1.60;;;7.30;99.90;;;;;;5053252;28;20029;-83
2023/12/30 09:51:42;;;;;;;11.82;2.15;;;7.10;99.90;;;;;;5051249;28;20048;-83
2023/12/30 09:54:10;;;;;;;8.15;1.42;;;7.30;99.90;;;;;;5046358;28;20477;-83
2023/12/30 09:56:36;;;;;;;9.80;1.73;;;7.20;99.90;;;;;;5050892;28;20488;-83
2023/12/30 09:59:02;;;;;;;10.45;1.88;;;7.40;99.90;;;;;;5044608;28;20052;-83
2023/12/30 10:01:30;;;;;;;8.98;2.03;;;7.10;99.90;;;;;;5049566;28;20674;-83
2023/12/30 10:03:56;;;;;;;9.85;1.65;;;7.40;99.90;;;;;;5080901;28;20044;-82
2023/12/30 10:06:23;;;;;;;8.32;2.10;;;7.50;99.90;;;;;;5046293;28;20041;-83
2023/12/30 10:08:49;;;;;;;13.18;1.77;;;7.20;99.90;;;;;;5051744;28;20477;-82
2023/12/30 10:11:16;;;;;;;8.80;1.58;;;7.30;99.90;;;;;;5047847;28;20041;-84
2023/12/30 10:13:41;;;;;;;14.55;2.20;;;7.30;99.90;;;;;;5047433;28;20037;-84
2023/12/30 10:16:08;;;;;;;8.43;1.77;;;7.60;99.90;;;;;;5051543;28;20036;-83
2023/12/30 10:18:37;;;;;;;8.95;1.60;;;6.90;99.90;;;;;;5049927;28;20082;-83
2023/12/30 10:21:04;;;;;;;8.60;1.60;;;6.90;99.90;;;;;;5040685;28;20041;-81
2023/12/30 10:23:34;;;;;;;11.50;2.17;;;6.90;99.90;;;;;;5050707;28;20186;-81
2023/12/30 10:26:01;;;;;;;9.32;1.40;;;7.20;99.90;;;;;;5046005;28;20106;-81
2023/12/30 10:28:27;;;;;;;13.65;2.13;;;7.40;99.90;;;;;;5048637;28;20320;-81
2023/12/30 10:31:19;;;;;;;10.27;1.30;;;7.50;99.90;;;;;;5029218;28;20045;-82
2023/12/30 10:33:48;;;;;;;7.72;1.25;;;7.00;99.90;;;;;;5046021;28;20191;-81
2023/12/30 10:36:15;;;;;;;7.97;1.33;;;7.10;99.90;;;;;;5082163;28;20159;-82
2023/12/30 10:38:43;;;;;;;9.00;1.40;;;7.50;99.90;;;;;;5081986;28;20041;-80
2023/12/30 10:41:09;;;;;;;11.18;1.70;;;7.20;99.90;;;;;;5043552;28;20055;-82
2023/12/30 10:43:34;;;;;;;10.45;1.50;;;7.00;99.90;;;;;;5051280;28;20040;-81
2023/12/30 10:46:01;;;;;;;7.22;1.30;;;7.30;99.90;;;;;;5048809;28;20048;-81
2023/12/30 10:48:32;;;;;;;6.07;1.40;;;7.20;99.90;;;;;;5050349;28;20120;-79
2023/12/30 10:50:59;;;;;;;8.63;1.90;;;7.10;99.90;;;;;;5068366;28;20444;-81
2023/12/30 10:53:44;;;;;;;8.95;2.15;;;7.60;99.90;;;;;;5042523;28;20152;-82
2023/12/30 10:56:11;;;;;;;20.27;2.10;;;7.20;99.90;;;;;;5046153;28;20037;-81
2023/12/30 10:58:39;;;;;;;9.60;1.60;;;7.50;99.90;;;;;;5041447;28;20463;-81
2023/12/30 11:01:05;;;;;;;7.88;1.50;;;7.50;99.90;;;;;;5042576;28;20680;-82
2023/12/30 11:03:33;;;;;;;8.55;1.33;;;7.30;99.90;;;;;;5040591;28;20048;-81
2023/12/30 11:05:59;;;;;;;7.38;1.67;;;7.60;99.90;;;;;;5051243;28;20122;-81
2023/12/30 11:08:25;;;;;;;6.55;1.20;;;7.90;99.90;;;;;;5048254;28;20529;-80
2023/12/30 11:10:51;;;;;;;9.93;1.65;;;7.70;99.90;;;;;;5048042;28;20062;-81
2023/12/30 11:13:19;;;;;;;10.13;2.10;;;7.60;99.90;;;;;;5049847;28;20516;-81
2023/12/30 11:15:45;;;;;;;9.15;1.52;;;7.40;99.90;;;;;;5051257;28;20043;-81
2023/12/30 11:18:14;;;;;;;12.65;1.55;;;7.90;99.90;;;;;;5049982;28;20451;-83
2023/12/30 11:20:46;;;;;;;4.70;1.23;;;7.80;99.90;;;;;;5049662;28;20497;-83
2023/12/30 11:23:14;;;;;;;8.25;1.60;;;7.90;99.90;;;;;;5043051;28;20519;-82
2023/12/30 11:25:46;;;;;;;9.05;2.10;;;7.80;99.90;;;;;;5050522;28;20029;-83
2023/12/30 11:28:20;;;;;;;6.93;1.55;;;7.50;99.90;;;;;;5040820;28;20029;-84
2023/12/30 11:30:56;;;;;;;8.23;2.00;;;7.50;99.90;;;;;;5050064;28;20508;-83
2023/12/30 11:33:22;;;;;;;11.20;1.83;;;7.50;99.90;;;;;;5042500;28;20052;-82
2023/12/30 11:35:54;;;;;;;10.10;2.08;;;7.60;99.90;;;;;;5048882;28;20603;-84
2023/12/30 11:38:20;;;;;;;7.68;1.52;;;7.50;99.90;;;;;;5044074;28;20044;-83
2023/12/30 11:40:54;;;;;;;10.05;2.35;;;7.80;99.90;;;;;;5045383;28;20646;-83
2023/12/30 11:43:21;;;;;;;9.80;2.20;;;7.90;99.90;;;;;;5048966;28;20459;-82
2023/12/30 11:45:47;;;;;;;6.80;1.85;;;7.60;99.90;;;;;;5047459;28;20033;-83
2023/12/30 11:48:14;;;;;;;9.52;1.90;;;7.70;99.90;;;;;;5047791;28;20041;-83
2023/12/30 11:50:40;;;;;;;8.82;1.70;;;7.70;99.90;;;;;;5048774;28;20120;-83
2023/12/30 11:53:07;;;;;;;7.40;2.05;;;7.70;99.90;;;;;;5049416;28;20041;-83
2023/12/30 11:55:32;;;;;;;8.68;1.80;;;7.90;99.90;;;;;;5050791;28;20120;-82
2023/12/30 11:57:58;;;;;;;8.43;1.48;;;7.80;99.90;;;;;;5050874;28;20121;-83
2023/12/30 12:00:27;;;;;;;7.80;2.00;;;7.70;99.90;;;;;;5049768;28;20072;-83
2023/12/30 12:02:54;;;;;;;6.47;1.80;;;7.60;99.90;;;;;;5049236;28;20090;-83
2023/12/30 12:05:20;;;;;;;11.50;1.90;;;7.50;99.90;;;;;;5050902;28;20404;-82
2023/12/30 12:07:46;;;;;;;6.50;2.17;;;7.60;99.90;;;;;;5045834;28;20037;-83
2023/12/30 12:10:12;;;;;;;6.63;1.90;;;7.40;99.90;;;;;;5041089;28;20048;-83
2023/12/30 12:12:39;;;;;;;7.55;2.05;;;7.60;99.90;;;;;;5040214;28;20034;-82
2023/12/30 12:15:07;;;;;;;7.35;1.65;;;7.50;99.90;;;;;;5049249;28;20045;-83
2023/12/30 12:17:35;;;;;;;11.48;2.53;;;7.20;99.90;;;;;;5050801;28;20424;-83
2023/12/30 12:20:01;;;;;;;7.28;1.67;;;7.70;99.90;;;;;;5048732;28;20136;-82
2023/12/30 12:22:27;;;;;;;10.05;1.65;;;7.70;99.90;;;;;;5047952;28;20471;-82
2023/12/30 12:24:52;;;;;;;11.43;1.88;;;7.60;99.90;;;;;;5047541;28;20052;-83
2023/12/30 12:27:22;;;;;;;10.20;1.58;;;7.80;99.90;;;;;;5049263;28;20048;-83
2023/12/30 12:29:53;;;;;;;7.07;1.85;;;7.40;99.90;;;;;;5046575;28;20082;-83
2023/12/30 12:32:20;;;;;;;8.40;1.73;;;7.80;99.90;;;;;;5070845;28;20049;-83
2023/12/30 12:34:46;;;;;;;9.25;1.92;;;7.40;99.90;;;;;;5049083;28;20168;-83
2023/12/30 12:37:14;;;;;;;7.03;1.65;;;7.50;99.90;;;;;;5053723;28;20049;-83
2023/12/30 12:39:41;;;;;;;14.32;1.83;;;7.50;99.90;;;;;;5052962;28;20396;-83
2023/12/30 12:42:07;;;;;;;9.05;1.50;;;7.80;99.90;;;;;;5051992;28;20040;-83
2023/12/30 12:44:32;;;;;;;8.02;1.55;;;7.60;99.90;;;;;;5084797;28;20120;-84
2023/12/30 12:46:58;;;;;;;8.50;1.50;;;7.50;99.90;;;;;;5053184;28;20412;-84
2023/12/30 12:49:24;;;;;;;4.85;1.30;;;7.70;99.90;;;;;;5051270;28;20034;-83